Time;durP1;ratioP1;P1;durP2;ratioP2;P2;SDS_P1;SDS_P2;PMS_P1;PMS_P2;Temp;Humidity;BMP_temperature;BMP_pressure;BME280_temperature;BME280_humidity;BME280_pressure;Samples;Min_cycle;Max_cycle;Signal;HPM_P1;HPM_P2
2021/06/16 00:01:13;;;;;;;10.40;2.10;;;;;;;;;;10195105;28;20038;-68
2021/06/16 00:06:09;;;;;;;7.82;1.67;;;;;;;;;;10178958;28;20393;-68
2021/06/16 00:11:07;;;;;;;6.80;1.67;;;;;;;;;;10196535;28;20526;-69
2021/06/16 00:16:04;;;;;;;6.00;1.63;;;;;;;;;;10199345;28;20042;-69
2021/06/16 00:21:00;;;;;;;6.15;1.42;;;;;;;;;;10175998;28;20065;-68
2021/06/16 00:25:56;;;;;;;5.03;1.70;;;;;;;;;;10192922;28;20138;-67
2021/06/16 00:30:53;;;;;;;7.13;2.25;;;;;;;;;;10206322;28;20076;-68
2021/06/16 00:35:49;;;;;;;10.35;1.60;;;;;;;;;;10204244;28;20064;-69
2021/06/16 00:40:45;;;;;;;5.90;1.98;;;;;;;;;;10205670;28;20144;-69
2021/06/16 00:45:42;;;;;;;5.50;1.33;;;;;;;;;;10188746;28;20456;-68
2021/06/16 00:50:39;;;;;;;5.57;1.83;;;;;;;;;;10196678;28;20066;-66
2021/06/16 00:55:38;;;;;;;7.00;2.10;;;;;;;;;;10201328;28;20504;-68
2021/06/16 01:00:42;;;;;;;7.00;1.92;;;;;;;;;;10194000;28;20093;-67
2021/06/16 01:05:41;;;;;;;7.03;2.00;;;;;;;;;;10189650;28;20046;-67
2021/06/16 01:10:40;;;;;;;7.03;2.35;;;;;;;;;;10192038;28;20042;-69
2021/06/16 01:15:48;;;;;;;7.47;2.13;;;;;;;;;;10195123;28;20042;-69
2021/06/16 01:20:49;;;;;;;7.25;2.33;;;;;;;;;;10195341;28;20070;-69
2021/06/16 01:26:00;;;;;;;7.43;2.88;;;;;;;;;;10187064;28;20068;-67
2021/06/16 01:30:57;;;;;;;7.05;2.53;;;;;;;;;;10207353;28;20461;-67
2021/06/16 01:35:55;;;;;;;7.85;2.97;;;;;;;;;;10198701;28;20060;-70
2021/06/16 01:40:53;;;;;;;7.25;2.90;;;;;;;;;;10198690;28;20531;-67
2021/06/16 01:45:50;;;;;;;8.48;2.50;;;;;;;;;;10199353;28;20075;-68
2021/06/16 01:50:48;;;;;;;9.68;2.83;;;;;;;;;;10193549;28;20073;-67
2021/06/16 01:55:46;;;;;;;8.88;2.35;;;;;;;;;;10197233;28;20132;-68
2021/06/16 02:00:43;;;;;;;9.82;3.45;;;;;;;;;;10191164;28;20061;-69
2021/06/16 02:05:39;;;;;;;8.80;2.22;;;;;;;;;;10192191;28;20068;-68
2021/06/16 02:10:38;;;;;;;9.32;2.72;;;;;;;;;;10183474;28;20050;-68
2021/06/16 02:15:39;;;;;;;10.45;2.53;;;;;;;;;;10186544;28;20050;-69
2021/06/16 02:20:37;;;;;;;7.00;2.47;;;;;;;;;;10201502;28;20069;-69
2021/06/16 02:25:36;;;;;;;6.10;2.88;;;;;;;;;;10199540;28;20055;-69
2021/06/16 02:30:33;;;;;;;8.00;3.28;;;;;;;;;;10198035;28;20042;-69
2021/06/16 02:35:29;;;;;;;5.38;2.20;;;;;;;;;;10189766;28;20466;-69
2021/06/16 02:40:26;;;;;;;6.75;3.00;;;;;;;;;;10199795;28;20138;-69
2021/06/16 02:45:23;;;;;;;8.30;2.55;;;;;;;;;;10200393;28;20046;-70
2021/06/16 02:50:23;;;;;;;8.07;2.65;;;;;;;;;;10196063;28;20105;-70
2021/06/16 02:55:22;;;;;;;6.03;2.50;;;;;;;;;;10177596;28;20057;-67
2021/06/16 03:00:18;;;;;;;7.20;2.45;;;;;;;;;;10182625;28;20108;-69
2021/06/16 03:05:18;;;;;;;6.35;2.33;;;;;;;;;;10176948;28;20077;-68
2021/06/16 03:10:15;;;;;;;4.90;2.22;;;;;;;;;;10190088;28;20100;-68
2021/06/16 03:15:12;;;;;;;4.78;2.08;;;;;;;;;;10193281;28;20104;-68
2021/06/16 03:20:09;;;;;;;6.50;2.75;;;;;;;;;;10193078;28;20075;-69
2021/06/16 03:25:07;;;;;;;7.95;2.67;;;;;;;;;;10183493;28;20045;-69
2021/06/16 03:30:04;;;;;;;8.90;2.97;;;;;;;;;;10200697;28;20046;-68
2021/06/16 03:35:02;;;;;;;7.60;2.70;;;;;;;;;;10186842;28;20049;-68
2021/06/16 03:39:59;;;;;;;8.73;3.35;;;;;;;;;;10183902;28;20575;-68
2021/06/16 03:44:56;;;;;;;7.88;3.20;;;;;;;;;;10194265;28;20041;-68
2021/06/16 03:49:53;;;;;;;9.30;2.85;;;;;;;;;;10182825;28;20137;-68
2021/06/16 03:54:50;;;;;;;8.52;2.83;;;;;;;;;;10187190;28;20061;-68
2021/06/16 03:59:47;;;;;;;7.38;3.25;;;;;;;;;;10196394;28;20038;-68
2021/06/16 04:04:44;;;;;;;6.03;2.92;;;;;;;;;;10189399;28;20092;-68
2021/06/16 04:09:40;;;;;;;7.70;3.00;;;;;;;;;;10201192;28;20068;-68
2021/06/16 04:14:38;;;;;;;6.95;3.35;;;;;;;;;;10191119;28;20073;-68
2021/06/16 04:19:34;;;;;;;11.43;3.90;;;;;;;;;;10203302;28;20142;-67
2021/06/16 04:24:31;;;;;;;8.40;3.78;;;;;;;;;;10197075;28;20046;-67
2021/06/16 04:29:27;;;;;;;7.47;3.22;;;;;;;;;;10200898;28;20046;-67
2021/06/16 04:34:24;;;;;;;6.57;3.13;;;;;;;;;;10202427;28;20045;-67
2021/06/16 04:39:20;;;;;;;7.57;3.50;;;;;;;;;;10195726;28;20042;-67
2021/06/16 04:44:17;;;;;;;7.95;2.92;;;;;;;;;;10192883;28;20045;-67
2021/06/16 04:49:13;;;;;;;7.25;2.75;;;;;;;;;;10185547;28;20048;-66
2021/06/16 04:54:13;;;;;;;7.38;2.35;;;;;;;;;;10183434;28;20058;-67
2021/06/16 04:59:09;;;;;;;10.30;3.83;;;;;;;;;;10189226;28;20475;-68
2021/06/16 05:04:06;;;;;;;10.38;2.97;;;;;;;;;;10197496;28;20085;-68
2021/06/16 05:09:03;;;;;;;7.55;2.58;;;;;;;;;;10194733;28;20132;-67
2021/06/16 05:13:59;;;;;;;8.25;2.72;;;;;;;;;;10195516;28;20120;-68
2021/06/16 05:18:57;;;;;;;6.90;3.08;;;;;;;;;;10198683;28;20562;-68
2021/06/16 05:23:56;;;;;;;6.35;2.88;;;;;;;;;;10190894;28;20045;-68
2021/06/16 05:28:52;;;;;;;7.78;2.30;;;;;;;;;;10190543;28;20180;-68
2021/06/16 05:33:49;;;;;;;7.80;2.53;;;;;;;;;;10204144;28;20124;-67
2021/06/16 05:38:46;;;;;;;8.80;2.42;;;;;;;;;;10203664;28;20447;-67
2021/06/16 05:43:42;;;;;;;8.80;1.92;;;;;;;;;;10193487;28;20484;-68
2021/06/16 05:48:39;;;;;;;7.97;2.40;;;;;;;;;;10202017;28;20041;-68
2021/06/16 05:53:35;;;;;;;9.30;2.25;;;;;;;;;;10186065;28;20571;-68
2021/06/16 05:58:31;;;;;;;11.10;2.20;;;;;;;;;;10175126;28;20514;-68
2021/06/16 06:03:27;;;;;;;8.20;2.42;;;;;;;;;;10189088;28;20498;-68
2021/06/16 06:08:24;;;;;;;6.45;1.80;;;;;;;;;;10186864;28;20043;-68
2021/06/16 06:13:20;;;;;;;7.15;1.63;;;;;;;;;;10187636;28;20381;-67
2021/06/16 06:18:17;;;;;;;6.45;1.48;;;;;;;;;;10190202;28;20534;-67
2021/06/16 06:23:13;;;;;;;5.05;1.52;;;;;;;;;;10188247;28;20037;-67
2021/06/16 06:28:10;;;;;;;6.78;1.50;;;;;;;;;;10192733;28;20418;-66
2021/06/16 06:33:06;;;;;;;8.70;1.52;;;;;;;;;;10184401;28;20058;-66
2021/06/16 06:38:04;;;;;;;4.70;1.50;;;;;;;;;;10200488;28;20053;-67
2021/06/16 06:43:01;;;;;;;6.05;1.45;;;;;;;;;;10192407;28;20486;-66
2021/06/16 06:47:57;;;;;;;7.53;1.30;;;;;;;;;;10192222;28;20132;-67
2021/06/16 06:52:53;;;;;;;7.97;1.95;;;;;;;;;;10183293;28;20050;-67
2021/06/16 06:57:50;;;;;;;9.05;1.52;;;;;;;;;;10186338;28;20046;-67
2021/06/16 07:02:47;;;;;;;7.85;1.67;;;;;;;;;;10189167;28;20157;-66
2021/06/16 07:07:43;;;;;;;4.90;1.40;;;;;;;;;;10178660;28;20046;-67
2021/06/16 07:12:40;;;;;;;7.47;2.17;;;;;;;;;;10190401;28;20057;-68
2021/06/16 07:17:36;;;;;;;5.68;1.70;;;;;;;;;;10197169;28;20503;-68
2021/06/16 07:22:33;;;;;;;6.82;1.75;;;;;;;;;;10197684;28;20129;-69
2021/06/16 07:27:29;;;;;;;10.38;1.55;;;;;;;;;;10206524;28;20187;-67
2021/06/16 07:32:26;;;;;;;8.02;2.20;;;;;;;;;;10197374;28;20053;-68
2021/06/16 07:37:22;;;;;;;5.97;1.30;;;;;;;;;;10204594;28;20113;-67
2021/06/16 07:42:19;;;;;;;7.88;1.63;;;;;;;;;;10194537;28;20072;-67
2021/06/16 07:47:15;;;;;;;8.77;1.70;;;;;;;;;;10182863;28;20141;-67
2021/06/16 07:52:11;;;;;;;5.55;1.75;;;;;;;;;;10205724;28;20728;-69
2021/06/16 07:57:08;;;;;;;5.25;1.65;;;;;;;;;;10192382;28;20173;-68
2021/06/16 08:02:05;;;;;;;6.43;1.85;;;;;;;;;;10192407;28;20085;-68
2021/06/16 08:07:03;;;;;;;6.55;1.65;;;;;;;;;;10198610;28;20546;-68
2021/06/16 08:11:59;;;;;;;6.20;1.25;;;;;;;;;;10189235;28;20556;-67
2021/06/16 08:16:55;;;;;;;4.00;1.23;;;;;;;;;;10197864;28;20049;-67
2021/06/16 08:21:52;;;;;;;5.57;1.33;;;;;;;;;;10185618;28;20057;-68
2021/06/16 08:26:48;;;;;;;4.72;1.00;;;;;;;;;;10186959;28;20041;-67
2021/06/16 08:31:45;;;;;;;5.68;1.23;;;;;;;;;;10197295;28;20042;-68
2021/06/16 08:36:44;;;;;;;7.38;1.50;;;;;;;;;;10190749;28;20140;-67
2021/06/16 08:41:49;;;;;;;4.40;1.27;;;;;;;;;;10191844;28;20053;-68
2021/06/16 08:46:46;;;;;;;11.95;2.58;;;;;;;;;;10178203;28;20109;-69
2021/06/16 08:51:43;;;;;;;6.47;1.33;;;;;;;;;;10198695;28;20049;-68
2021/06/16 08:56:39;;;;;;;3.92;1.15;;;;;;;;;;10200942;28;20097;-69
2021/06/16 09:01:36;;;;;;;5.22;1.60;;;;;;;;;;10197520;28;20046;-69
2021/06/16 09:06:32;;;;;;;6.47;1.38;;;;;;;;;;10199115;28;20471;-68
2021/06/16 09:11:49;;;;;;;5.95;1.30;;;;;;;;;;10198587;28;20395;-68
2021/06/16 09:16:46;;;;;;;5.95;1.70;;;;;;;;;;10197417;28;20065;-68
2021/06/16 09:21:42;;;;;;;7.25;1.73;;;;;;;;;;10196413;28;20582;-67
2021/06/16 09:26:43;;;;;;;4.53;1.10;;;;;;;;;;10205006;28;20130;-69
2021/06/16 09:31:43;;;;;;;8.05;1.40;;;;;;;;;;10199338;28;20046;-68
2021/06/16 09:36:54;;;;;;;6.40;1.50;;;;;;;;;;10195663;28;20046;-71
2021/06/16 09:42:01;;;;;;;4.95;1.40;;;;;;;;;;10200703;28;20073;-68
2021/06/16 09:47:14;;;;;;;5.55;1.70;;;;;;;;;;10201243;28;20152;-68
2021/06/16 09:52:25;;;;;;;5.80;1.40;;;;;;;;;;10199056;28;20573;-67
2021/06/16 09:57:21;;;;;;;6.28;1.75;;;;;;;;;;10184076;28;20073;-68
2021/06/16 10:02:18;;;;;;;5.50;1.30;;;;;;;;;;10185367;28;20054;-68
2021/06/16 10:07:15;;;;;;;9.90;2.00;;;;;;;;;;10192258;28;20046;-69
2021/06/16 10:12:12;;;;;;;7.13;1.52;;;;;;;;;;10190699;28;20049;-69
2021/06/16 10:17:09;;;;;;;6.55;1.80;;;;;;;;;;10188461;28;20480;-67
2021/06/16 10:22:05;;;;;;;5.22;1.33;;;;;;;;;;10191626;28;20056;-69
2021/06/16 10:27:04;;;;;;;5.75;1.55;;;;;;;;;;10191468;28;20111;-66
2021/06/16 10:32:04;;;;;;;5.18;1.40;;;;;;;;;;10190369;28;20042;-67
2021/06/16 10:37:07;;;;;;;9.30;1.42;;;;;;;;;;10197767;28;20061;-67
2021/06/16 10:42:04;;;;;;;5.75;1.48;;;;;;;;;;10187803;28;20104;-68
2021/06/16 10:47:01;;;;;;;4.85;1.55;;;;;;;;;;10203649;28;20041;-67
2021/06/16 10:51:59;;;;;;;4.90;1.58;;;;;;;;;;10195761;28;20056;-67
2021/06/16 10:57:10;;;;;;;4.22;1.35;;;;;;;;;;10191264;28;20041;-67
2021/06/16 11:02:06;;;;;;;4.07;1.35;;;;;;;;;;10188148;28;20143;-68
2021/06/16 11:07:03;;;;;;;4.50;1.60;;;;;;;;;;10183658;28;20046;-67
2021/06/16 11:12:04;;;;;;;6.13;1.58;;;;;;;;;;10171405;28;20077;-67
2021/06/16 11:17:04;;;;;;;4.60;1.50;;;;;;;;;;10182112;28;20046;-68
2021/06/16 11:22:04;;;;;;;3.42;1.10;;;;;;;;;;10176584;28;20042;-67
2021/06/16 11:27:00;;;;;;;4.80;1.30;;;;;;;;;;10180606;28;20076;-67
2021/06/16 11:32:09;;;;;;;11.43;1.90;;;;;;;;;;10189903;28;20138;-67
2021/06/16 11:37:06;;;;;;;4.47;1.40;;;;;;;;;;10187552;28;20504;-67
2021/06/16 11:42:02;;;;;;;3.60;1.30;;;;;;;;;;10185439;28;20118;-67
2021/06/16 11:46:59;;;;;;;4.50;1.20;;;;;;;;;;10189274;28;20571;-67
2021/06/16 11:51:59;;;;;;;3.80;1.40;;;;;;;;;;10190537;28;20046;-68
2021/06/16 11:57:07;;;;;;;4.15;1.40;;;;;;;;;;10180313;28;20523;-67
2021/06/16 12:02:03;;;;;;;4.03;1.42;;;;;;;;;;10172662;28;20562;-67
2021/06/16 12:06:59;;;;;;;6.25;1.60;;;;;;;;;;10185171;28;20052;-67
2021/06/16 12:11:56;;;;;;;6.60;1.73;;;;;;;;;;10185069;28;20084;-67
2021/06/16 12:17:02;;;;;;;5.63;2.00;;;;;;;;;;10182399;28;20045;-67
2021/06/16 12:22:00;;;;;;;5.90;1.85;;;;;;;;;;10181080;28;20053;-68
2021/06/16 12:26:56;;;;;;;5.88;1.80;;;;;;;;;;10194572;28;20811;-67
2021/06/16 12:31:55;;;;;;;8.00;2.83;;;;;;;;;;10188788;28;20486;-67
2021/06/16 12:37:04;;;;;;;5.38;1.90;;;;;;;;;;10184601;28;20081;-68
2021/06/16 12:42:06;;;;;;;3.15;1.73;;;;;;;;;;10188940;28;20050;-68
2021/06/16 12:47:13;;;;;;;3.78;1.70;;;;;;;;;;10192714;28;20053;-67
2021/06/16 12:52:10;;;;;;;7.05;2.38;;;;;;;;;;10176841;28;20105;-68
2021/06/16 12:57:18;;;;;;;5.80;2.25;;;;;;;;;;10180459;28;20149;-67
2021/06/16 13:02:28;;;;;;;9.55;2.47;;;;;;;;;;10197502;28;20133;-69
2021/06/16 13:07:43;;;;;;;4.55;1.92;;;;;;;;;;10189605;28;20111;-72
2021/06/16 13:12:49;;;;;;;9.30;2.53;;;;;;;;;;10182053;28;20673;-66
2021/06/16 13:17:47;;;;;;;9.52;2.88;;;;;;;;;;10184609;28;20073;-68
2021/06/16 13:22:45;;;;;;;4.35;1.88;;;;;;;;;;10188370;28;20038;-68
2021/06/16 13:27:46;;;;;;;4.18;1.83;;;;;;;;;;10184212;28;20066;-68
2021/06/16 13:32:43;;;;;;;5.85;2.58;;;;;;;;;;10189899;28;20083;-68
2021/06/16 13:37:39;;;;;;;8.90;2.53;;;;;;;;;;10186939;28;20129;-68
2021/06/16 13:42:35;;;;;;;3.80;2.00;;;;;;;;;;10174194;28;20515;-69
2021/06/16 13:47:32;;;;;;;4.95;2.55;;;;;;;;;;10191633;28;20042;-67
2021/06/16 13:52:28;;;;;;;4.75;2.22;;;;;;;;;;10190296;28;20046;-68
2021/06/16 13:57:25;;;;;;;4.25;2.15;;;;;;;;;;10184109;28;20147;-68
2021/06/16 14:02:21;;;;;;;10.43;2.25;;;;;;;;;;10184392;28;20078;-68
2021/06/16 14:07:17;;;;;;;5.10;2.60;;;;;;;;;;10175820;28;20046;-68
2021/06/16 14:12:17;;;;;;;4.10;2.20;;;;;;;;;;10183699;28;20138;-68
2021/06/16 14:17:14;;;;;;;7.72;2.40;;;;;;;;;;10184538;28;20472;-69
2021/06/16 14:22:11;;;;;;;6.63;2.60;;;;;;;;;;10184940;28;20070;-69
2021/06/16 14:27:08;;;;;;;6.85;2.20;;;;;;;;;;10186150;28;20081;-69
2021/06/16 14:32:05;;;;;;;6.00;2.30;;;;;;;;;;10192814;28;20054;-68
2021/06/16 14:37:02;;;;;;;8.63;2.70;;;;;;;;;;10195810;28;20076;-69
2021/06/16 14:41:59;;;;;;;6.22;2.60;;;;;;;;;;10192837;28;20128;-69
2021/06/16 14:46:55;;;;;;;5.55;2.83;;;;;;;;;;10183219;28;20042;-68
2021/06/16 14:51:53;;;;;;;5.00;2.60;;;;;;;;;;10178322;28;20053;-68
2021/06/16 14:56:49;;;;;;;6.20;2.92;;;;;;;;;;10181363;28;20129;-70
2021/06/16 15:01:46;;;;;;;6.20;2.67;;;;;;;;;;10185673;28;20050;-68
2021/06/16 15:07:02;;;;;;;6.65;3.10;;;;;;;;;;10177712;28;20052;-67
2021/06/16 15:11:58;;;;;;;5.65;2.92;;;;;;;;;;10175822;28;20081;-67
2021/06/16 15:16:55;;;;;;;5.78;2.97;;;;;;;;;;10186491;28;20103;-68
2021/06/16 15:21:52;;;;;;;6.70;2.75;;;;;;;;;;10179036;28;20045;-68
2021/06/16 15:26:49;;;;;;;5.05;2.70;;;;;;;;;;10184328;28;20141;-68
2021/06/16 15:31:45;;;;;;;6.50;2.72;;;;;;;;;;10185641;28;20145;-67
2021/06/16 15:36:41;;;;;;;6.75;3.08;;;;;;;;;;10186399;28;20495;-68
2021/06/16 15:41:38;;;;;;;6.90;2.80;;;;;;;;;;10192177;28;20053;-68
2021/06/16 15:46:34;;;;;;;4.90;3.03;;;;;;;;;;10182776;28;20049;-67
2021/06/16 15:51:31;;;;;;;4.47;3.05;;;;;;;;;;10183327;28;20046;-67
2021/06/16 15:56:27;;;;;;;7.90;3.10;;;;;;;;;;10176958;28;20416;-67
2021/06/16 16:01:23;;;;;;;11.15;3.30;;;;;;;;;;10195853;28;20128;-68
2021/06/16 16:06:20;;;;;;;5.85;2.78;;;;;;;;;;10186606;28;20060;-68
2021/06/16 16:11:19;;;;;;;5.65;2.80;;;;;;;;;;10195429;28;20042;-67
2021/06/16 16:16:16;;;;;;;6.90;2.90;;;;;;;;;;10176500;28;20100;-68
2021/06/16 16:21:13;;;;;;;7.60;2.92;;;;;;;;;;10192011;28;20361;-68
2021/06/16 16:26:10;;;;;;;5.07;2.78;;;;;;;;;;10182229;28;20458;-67
2021/06/16 16:31:06;;;;;;;4.63;2.22;;;;;;;;;;10193262;28;20141;-67
2021/06/16 16:36:03;;;;;;;5.32;3.00;;;;;;;;;;10185160;28;20053;-68
2021/06/16 16:40:59;;;;;;;5.75;2.65;;;;;;;;;;10206532;28;20081;-66
2021/06/16 16:45:56;;;;;;;6.32;3.25;;;;;;;;;;10201757;28;20133;-68
2021/06/16 16:50:52;;;;;;;4.63;2.88;;;;;;;;;;10182343;28;20095;-67
2021/06/16 16:55:49;;;;;;;5.85;3.33;;;;;;;;;;10186166;28;20050;-70
2021/06/16 17:00:45;;;;;;;4.93;3.20;;;;;;;;;;10184461;28;20077;-70
2021/06/16 17:05:41;;;;;;;8.88;3.67;;;;;;;;;;10191374;28;20099;-69
2021/06/16 17:10:38;;;;;;;5.97;3.00;;;;;;;;;;10187074;28;20133;-69
2021/06/16 17:15:35;;;;;;;10.30;4.00;;;;;;;;;;10184117;28;20057;-69
2021/06/16 17:20:31;;;;;;;6.35;3.58;;;;;;;;;;10182751;28;20053;-69
2021/06/16 17:25:29;;;;;;;6.93;3.50;;;;;;;;;;10188845;28;20112;-70
2021/06/16 17:30:25;;;;;;;7.35;3.90;;;;;;;;;;10176954;28;20073;-69
2021/06/16 17:35:22;;;;;;;6.63;3.78;;;;;;;;;;10181533;28;20038;-69
2021/06/16 17:40:18;;;;;;;9.02;3.92;;;;;;;;;;10184619;28;20047;-70
2021/06/16 17:45:15;;;;;;;6.05;4.05;;;;;;;;;;10176699;28;20473;-69
2021/06/16 17:50:13;;;;;;;10.40;4.10;;;;;;;;;;10181877;28;20069;-69
2021/06/16 17:55:10;;;;;;;9.25;3.95;;;;;;;;;;10187397;28;20081;-69
2021/06/16 18:00:12;;;;;;;10.00;4.00;;;;;;;;;;10199872;28;20878;-69
2021/06/16 18:05:08;;;;;;;6.38;3.80;;;;;;;;;;10175084;28;20498;-70
2021/06/16 18:10:06;;;;;;;8.65;4.10;;;;;;;;;;10199425;28;20052;-70
2021/06/16 18:15:03;;;;;;;5.50;3.45;;;;;;;;;;10180105;28;20092;-70
2021/06/16 18:19:59;;;;;;;7.65;4.03;;;;;;;;;;10181762;28;20500;-69
2021/06/16 18:24:56;;;;;;;5.95;4.00;;;;;;;;;;10169207;28;20424;-68
2021/06/16 18:29:52;;;;;;;8.43;4.43;;;;;;;;;;10182581;28;20065;-70
2021/06/16 18:34:51;;;;;;;10.30;4.68;;;;;;;;;;10178173;28;20081;-71
2021/06/16 18:39:53;;;;;;;6.68;4.47;;;;;;;;;;10186174;28;20540;-70
2021/06/16 18:44:49;;;;;;;7.70;4.60;;;;;;;;;;10178046;28;20099;-70
2021/06/16 18:49:47;;;;;;;5.90;4.60;;;;;;;;;;10180101;28;20107;-69
2021/06/16 18:54:44;;;;;;;8.15;4.10;;;;;;;;;;10175531;28;20057;-69
2021/06/16 18:59:41;;;;;;;7.28;4.50;;;;;;;;;;10191410;28;20158;-69
2021/06/16 19:09:40;;;;;;;7.32;3.92;;;;;;;;;;10177913;28;20042;-70
2021/06/16 19:14:37;;;;;;;6.82;4.32;;;;;;;;;;10182115;28;20050;-69
2021/06/16 19:19:36;;;;;;;6.88;4.70;;;;;;;;;;10181015;28;20071;-69
2021/06/16 19:24:33;;;;;;;7.20;4.57;;;;;;;;;;10181223;28;20042;-68
2021/06/16 19:29:29;;;;;;;7.28;4.50;;;;;;;;;;10185960;28;20527;-70
2021/06/16 19:34:25;;;;;;;7.90;4.10;;;;;;;;;;10185575;28;20089;-71
2021/06/16 19:39:22;;;;;;;6.15;4.25;;;;;;;;;;10172596;28;20504;-71
2021/06/16 19:44:18;;;;;;;8.98;4.80;;;;;;;;;;10185771;28;20123;-69
2021/06/16 19:49:16;;;;;;;9.25;4.85;;;;;;;;;;10179250;28;20039;-70
2021/06/16 19:54:12;;;;;;;7.10;4.90;;;;;;;;;;10174683;28;20108;-69
2021/06/16 19:59:09;;;;;;;6.47;4.68;;;;;;;;;;10179788;28;20089;-71
2021/06/16 20:04:05;;;;;;;7.97;5.43;;;;;;;;;;10177208;28;20157;-69
2021/06/16 20:09:03;;;;;;;7.03;4.70;;;;;;;;;;10178181;28;20038;-69
2021/06/16 20:13:59;;;;;;;9.57;5.15;;;;;;;;;;10174073;28;20439;-69
2021/06/16 20:18:57;;;;;;;8.95;5.00;;;;;;;;;;10178702;28;20050;-70
2021/06/16 20:23:53;;;;;;;8.75;5.07;;;;;;;;;;10180242;28;20078;-71
2021/06/16 20:28:50;;;;;;;8.45;4.90;;;;;;;;;;10174851;28;20128;-70
2021/06/16 20:33:49;;;;;;;8.88;5.50;;;;;;;;;;10183325;28;20101;-71
2021/06/16 20:38:46;;;;;;;8.82;5.22;;;;;;;;;;10184260;28;20120;-69
2021/06/16 20:43:42;;;;;;;10.13;5.50;;;;;;;;;;10179775;28;20065;-71
2021/06/16 20:48:40;;;;;;;10.05;5.50;;;;;;;;;;10186309;28;20046;-69
2021/06/16 20:53:36;;;;;;;9.30;5.07;;;;;;;;;;10189678;28;20132;-69
2021/06/16 20:58:33;;;;;;;8.30;5.82;;;;;;;;;;10185606;28;20066;-69
2021/06/16 21:03:30;;;;;;;9.80;5.53;;;;;;;;;;10188557;28;20467;-69
2021/06/16 21:08:26;;;;;;;9.25;5.60;;;;;;;;;;10179174;28;20085;-69
2021/06/16 21:13:23;;;;;;;8.50;5.60;;;;;;;;;;10190167;28;20129;-70
2021/06/16 21:18:22;;;;;;;11.13;5.60;;;;;;;;;;10194158;28;20042;-69
2021/06/16 21:23:18;;;;;;;11.05;5.78;;;;;;;;;;10182527;28;20112;-70
2021/06/16 21:28:15;;;;;;;7.32;5.47;;;;;;;;;;10173122;28;20076;-69
2021/06/16 21:33:11;;;;;;;6.70;5.25;;;;;;;;;;10196548;28;20073;-69
2021/06/16 21:38:08;;;;;;;9.10;4.82;;;;;;;;;;10179196;28;20045;-69
2021/06/16 21:43:04;;;;;;;9.13;5.20;;;;;;;;;;10180708;28;20512;-69
2021/06/16 21:48:03;;;;;;;10.38;5.45;;;;;;;;;;10182281;28;20084;-70
2021/06/16 21:53:02;;;;;;;11.85;4.65;;;;;;;;;;10194071;28;20109;-69
2021/06/16 21:57:58;;;;;;;8.68;4.80;;;;;;;;;;10189776;28;20128;-70
2021/06/16 22:02:55;;;;;;;8.55;5.00;;;;;;;;;;10196127;28;20080;-69
2021/06/16 22:07:51;;;;;;;5.43;3.97;;;;;;;;;;10191389;28;20053;-70
2021/06/16 22:12:48;;;;;;;8.45;4.60;;;;;;;;;;10188022;28;20092;-69
2021/06/16 22:17:44;;;;;;;5.90;3.88;;;;;;;;;;10184812;28;20042;-69
2021/06/16 22:22:42;;;;;;;9.40;3.78;;;;;;;;;;10180629;28;20041;-71
2021/06/16 22:27:39;;;;;;;6.78;3.90;;;;;;;;;;10188528;28;20084;-71
2021/06/16 22:32:36;;;;;;;10.75;4.30;;;;;;;;;;10189483;28;20137;-70
2021/06/16 22:37:32;;;;;;;6.28;3.60;;;;;;;;;;10177569;28;20160;-70
2021/06/16 22:42:28;;;;;;;7.30;3.75;;;;;;;;;;10182381;28;20192;-69
2021/06/16 22:47:24;;;;;;;7.35;4.28;;;;;;;;;;10188622;28;20128;-69
2021/06/16 22:52:21;;;;;;;7.18;3.95;;;;;;;;;;10182365;28;20125;-69
2021/06/16 22:57:19;;;;;;;6.68;3.88;;;;;;;;;;10182145;28;20119;-69
2021/06/16 23:02:15;;;;;;;8.38;3.55;;;;;;;;;;10175135;28;20476;-70
2021/06/16 23:07:12;;;;;;;8.57;3.80;;;;;;;;;;10185566;28;20038;-69
2021/06/16 23:12:08;;;;;;;6.68;4.45;;;;;;;;;;10182613;28;20129;-70
2021/06/16 23:17:05;;;;;;;8.15;4.63;;;;;;;;;;10183010;28;20467;-70
2021/06/16 23:22:01;;;;;;;7.80;4.25;;;;;;;;;;10184678;28;20567;-71
2021/06/16 23:26:58;;;;;;;8.52;4.35;;;;;;;;;;10179298;28;20140;-70
2021/06/16 23:31:54;;;;;;;10.20;3.80;;;;;;;;;;10189062;28;20073;-71
2021/06/16 23:36:50;;;;;;;7.20;3.35;;;;;;;;;;10178836;28;20133;-68
2021/06/16 23:41:46;;;;;;;8.25;3.38;;;;;;;;;;10190707;28;20157;-68
2021/06/16 23:46:43;;;;;;;5.43;3.10;;;;;;;;;;10180495;28;20152;-70
2021/06/16 23:51:39;;;;;;;6.22;3.17;;;;;;;;;;10178120;28;20193;-69
2021/06/16 23:56:35;;;;;;;5.72;3.33;;;;;;;;;;10182816;28;20042;-71
